Welcome to the New NWS' Forecast!
Most changes are behind the scenes, but click here for differences you might notice.

Terminal Aerodrome Forecast (TAF)

Issued by National Weather Service (NWS)

                            
561 
FTUS42 KMFL 171120
TAFMIA
TAF
KMIA 171120Z 1712/1818 10010KT P6SM FEW025 SCT060
     FM171500 10013KT P6SM SCT030 BKN060
     FM180000 09005KT P6SM FEW025 SCT060
     FM181300 10008KT P6SM VCSH SCT025 SCT060=